createdAt,value
2018-09-23T00:02:44.050Z,6.53
2018-09-23T00:07:47.134Z,6.50
2018-09-23T00:12:50.216Z,6.73
2018-09-23T00:17:53.283Z,7.10
2018-09-23T00:22:56.403Z,7.93
2018-09-23T00:27:59.497Z,8.53
2018-09-23T00:33:02.559Z,7.90
2018-09-23T00:38:05.611Z,8.33
2018-09-23T00:43:08.719Z,8.70
2018-09-23T00:48:11.783Z,7.73
2018-09-23T00:53:14.847Z,8.50
2018-09-23T00:58:17.926Z,9.50
2018-09-23T01:03:21.033Z,9.47
2018-09-23T01:08:24.106Z,8.57
2018-09-23T01:13:27.155Z,9.10
2018-09-23T01:18:30.184Z,9.17
2018-09-23T01:23:33.261Z,9.40
2018-09-23T01:34:11.750Z,10.60
2018-09-23T01:45:00.090Z,10.63
2018-09-23T01:50:03.162Z,9.23
2018-09-23T01:55:06.243Z,10.13
2018-09-23T02:00:09.306Z,10.10
2018-09-23T02:05:12.328Z,10.07
2018-09-23T02:10:15.451Z,10.53
2018-09-23T02:15:18.518Z,11.23
2018-09-23T02:20:21.683Z,12.10
2018-09-23T02:25:24.714Z,13.10
2018-09-23T02:30:27.830Z,13.10
2018-09-23T02:35:30.899Z,12.50
2018-09-23T02:40:33.929Z,12.80
2018-09-23T02:45:36.982Z,12.83
2018-09-23T02:50:40.031Z,13.93
2018-09-23T02:55:43.079Z,13.80
2018-09-23T03:00:46.170Z,13.40
2018-09-23T03:05:49.327Z,12.93
2018-09-23T03:10:52.537Z,13.57
2018-09-23T03:15:55.585Z,13.10
2018-09-23T03:20:58.675Z,14.57
2018-09-23T03:26:01.782Z,11.90
2018-09-23T03:31:04.854Z,12.33
2018-09-23T03:36:08.091Z,12.20
2018-09-23T03:41:11.122Z,13.50
2018-09-23T03:46:14.520Z,11.90
2018-09-23T03:51:17.602Z,13.43
2018-09-23T03:56:20.716Z,12.97
2018-09-23T04:01:23.786Z,14.53
2018-09-23T04:06:26.846Z,14.37
2018-09-23T04:11:29.907Z,14.70
2018-09-23T04:16:33.115Z,13.13
2018-09-23T04:21:36.219Z,12.40
2018-09-23T04:26:39.301Z,13.13
2018-09-23T04:31:42.372Z,13.70
2018-09-23T04:36:45.444Z,13.40
2018-09-23T04:41:48.562Z,13.03
2018-09-23T04:46:51.632Z,11.90
2018-09-23T04:51:54.734Z,13.10
2018-09-23T04:56:57.813Z,12.90
2018-09-23T05:02:01.980Z,12.00
2018-09-23T05:07:05.158Z,12.00
2018-09-23T05:12:08.262Z,11.63
2018-09-23T05:17:11.345Z,10.87
2018-09-23T05:22:14.528Z,11.27
2018-09-23T05:27:17.605Z,12.03
2018-09-23T05:32:20.782Z,12.57
2018-09-23T05:37:23.980Z,12.40
2018-09-23T05:42:27.815Z,11.23
2018-09-23T05:47:31.124Z,10.97
2018-09-23T05:52:34.271Z,10.13
2018-09-23T05:57:37.378Z,11.90
2018-09-23T06:02:40.602Z,11.67
2018-09-23T06:07:43.664Z,11.30
2018-09-23T06:12:46.772Z,11.13
2018-09-23T06:17:49.830Z,10.60
2018-09-23T06:22:52.926Z,10.60
2018-09-23T06:27:56.121Z,10.80
2018-09-23T06:32:59.279Z,10.63
2018-09-23T06:38:02.396Z,10.73
2018-09-23T06:43:05.527Z,10.90
2018-09-23T06:48:08.722Z,9.73
2018-09-23T06:53:11.806Z,10.60
2018-09-23T06:58:14.981Z,10.37
2018-09-23T07:03:18.071Z,10.17
2018-09-23T07:08:21.246Z,9.00
2018-09-23T07:13:24.438Z,8.87
2018-09-23T07:18:27.626Z,9.43
2018-09-23T07:23:33.228Z,9.67
2018-09-23T07:28:36.382Z,8.90
2018-09-23T07:33:39.488Z,8.40
2018-09-23T07:38:42.709Z,9.30
2018-09-23T07:43:46.095Z,8.60
2018-09-23T07:48:49.174Z,8.93
2018-09-23T07:53:52.247Z,8.40
2018-09-23T07:58:55.362Z,9.13
2018-09-23T08:03:58.413Z,7.60
2018-09-23T08:09:01.601Z,7.50
2018-09-23T08:14:05.181Z,7.97
2018-09-23T08:19:08.357Z,8.03
2018-09-23T08:24:11.398Z,8.37
2018-09-23T08:29:14.482Z,9.27
2018-09-23T08:34:17.575Z,8.17
2018-09-23T08:39:20.847Z,7.90
2018-09-23T08:44:23.965Z,7.23
2018-09-23T08:49:26.998Z,7.07
2018-09-23T08:54:30.059Z,6.70
2018-09-23T08:59:33.227Z,5.67
2018-09-23T09:04:36.307Z,5.87
2018-09-23T09:09:39.424Z,5.90
2018-09-23T09:14:42.726Z,6.00
2018-09-23T09:19:46.791Z,5.70
2018-09-23T09:24:49.897Z,6.10
2018-09-23T09:29:53.036Z,7.27
2018-09-23T09:34:56.188Z,6.60
2018-09-23T09:39:59.335Z,6.40
2018-09-23T09:45:03.166Z,6.40
2018-09-23T09:50:06.489Z,6.23
2018-09-23T09:55:09.576Z,6.63
2018-09-23T10:00:12.679Z,7.17
2018-09-23T10:05:15.702Z,7.70
2018-09-23T10:10:19.285Z,7.93
2018-09-23T10:15:23.750Z,6.97
2018-09-23T10:20:27.934Z,7.53
2018-09-23T10:25:32.019Z,6.57
2018-09-23T10:30:35.744Z,6.23
2018-09-23T10:35:40.101Z,7.43
2018-09-23T10:40:43.910Z,7.37
2018-09-23T10:45:48.255Z,9.17
2018-09-23T10:50:52.857Z,8.20
2018-09-23T10:55:57.282Z,8.73
2018-09-23T11:01:01.599Z,9.40
2018-09-23T11:06:05.318Z,10.57
2018-09-23T11:11:09.651Z,9.47
2018-09-23T11:16:13.851Z,10.50
2018-09-23T11:21:16.986Z,10.30
2018-09-23T11:26:20.399Z,8.67
2018-09-23T11:31:23.551Z,8.53
2018-09-23T11:36:26.985Z,11.23
2018-09-23T11:41:31.425Z,10.60
2018-09-23T11:46:35.122Z,12.07
2018-09-23T11:51:38.459Z,10.40
2018-09-23T11:56:42.617Z,9.50
2018-09-23T12:01:46.664Z,14.47
2018-09-23T12:06:50.789Z,10.17
2018-09-23T12:11:54.006Z,9.77
2018-09-23T12:16:57.149Z,10.40
2018-09-23T12:22:00.241Z,9.80
2018-09-23T12:27:03.386Z,10.83
2018-09-23T12:32:06.559Z,11.30
2018-09-23T12:37:09.817Z,12.03
2018-09-23T12:42:12.976Z,11.60
2018-09-23T12:47:16.206Z,11.33
2018-09-23T12:52:19.294Z,11.30
2018-09-23T12:57:22.414Z,11.87
2018-09-23T13:02:25.656Z,11.83
2018-09-23T13:07:28.743Z,8.87
2018-09-23T13:12:31.920Z,8.27
2018-09-23T13:17:35.142Z,4.50
2018-09-23T13:22:38.229Z,3.70
2018-09-23T13:27:41.314Z,2.90
2018-09-23T13:32:44.390Z,4.30
2018-09-23T13:37:47.464Z,3.10
2018-09-23T13:42:50.634Z,4.87
2018-09-23T13:47:53.725Z,5.47
2018-09-23T13:52:56.822Z,6.90
2018-09-23T13:57:59.883Z,6.70
2018-09-23T14:03:02.966Z,7.27
2018-09-23T14:08:05.927Z,7.57
2018-09-23T14:13:08.990Z,8.00
2018-09-23T14:18:12.091Z,11.30
2018-09-23T14:23:15.178Z,8.33
2018-09-23T14:28:18.254Z,6.43
2018-09-23T14:33:21.407Z,6.63
2018-09-23T14:38:24.517Z,6.20
2018-09-23T14:43:27.583Z,7.57
2018-09-23T14:48:30.778Z,6.03
2018-09-23T14:53:33.869Z,5.60
2018-09-23T14:58:36.999Z,5.40
2018-09-23T15:03:40.369Z,3.93
2018-09-23T15:08:43.456Z,3.83
2018-09-23T15:13:46.604Z,3.10
2018-09-23T15:18:49.774Z,3.40
2018-09-23T15:23:52.837Z,2.93
2018-09-23T15:28:55.897Z,4.23
2018-09-23T15:39:09.219Z,4.57
2018-09-23T15:44:13.185Z,5.20
2018-09-23T15:49:17.169Z,3.50
2018-09-23T15:54:20.287Z,3.17
2018-09-23T15:59:23.470Z,3.37
2018-09-23T16:04:26.672Z,3.87
2018-09-23T16:09:30.035Z,4.10
2018-09-23T16:14:33.110Z,4.30
2018-09-23T16:19:36.267Z,4.87
2018-09-23T16:24:39.390Z,5.90
2018-09-23T16:29:42.591Z,19.73
2018-09-23T16:34:45.813Z,12.50
2018-09-23T16:39:48.869Z,13.90
2018-09-23T16:44:51.922Z,14.03
2018-09-23T16:49:55.091Z,16.60
2018-09-23T16:54:58.221Z,6.60
2018-09-23T17:00:03.342Z,5.70
2018-09-23T17:05:06.403Z,5.17
2018-09-23T17:10:09.541Z,4.63
2018-09-23T17:15:12.693Z,3.87
2018-09-23T17:20:15.780Z,3.90
2018-09-23T17:25:18.883Z,2.30
2018-09-23T17:30:22.066Z,2.00
2018-09-23T17:35:25.199Z,3.30
2018-09-23T17:40:28.344Z,2.60
2018-09-23T17:45:31.455Z,3.17
2018-09-23T17:50:34.502Z,3.17
2018-09-23T17:55:37.696Z,4.17
2018-09-23T18:00:42.217Z,2.57
2018-09-23T18:05:45.389Z,2.80
2018-09-23T18:10:48.589Z,2.73
2018-09-23T18:15:51.686Z,1.97
2018-09-23T18:20:54.886Z,2.40
2018-09-23T18:25:57.981Z,3.20
2018-09-23T18:31:01.135Z,2.47
2018-09-23T18:36:04.245Z,2.00
2018-09-23T18:41:07.417Z,1.70
2018-09-23T18:46:10.530Z,2.20
2018-09-23T18:51:13.603Z,1.93
2018-09-23T18:56:17.491Z,1.70
2018-09-23T19:01:20.569Z,1.60
2018-09-23T19:06:23.634Z,1.90
2018-09-23T19:11:26.719Z,1.47
2018-09-23T19:16:31.934Z,2.43
2018-09-23T19:21:34.966Z,2.10
2018-09-23T19:26:37.981Z,2.50
2018-09-23T19:31:41.007Z,2.90
2018-09-23T19:36:44.017Z,2.23
2018-09-23T19:41:47.050Z,3.30
2018-09-23T19:46:50.298Z,3.47
2018-09-23T19:51:53.395Z,3.77
2018-09-23T19:56:56.459Z,2.90
2018-09-23T20:01:59.481Z,2.80
2018-09-23T20:07:02.622Z,3.13
2018-09-23T20:12:05.741Z,2.60
2018-09-23T20:17:08.854Z,3.10
2018-09-23T20:22:12.313Z,2.50
2018-09-23T20:32:59.949Z,2.60
2018-09-23T20:38:03.106Z,3.40
2018-09-23T20:43:06.130Z,2.87
2018-09-23T20:48:09.171Z,2.60
2018-09-23T20:53:12.197Z,3.20
2018-09-23T20:58:15.232Z,2.70
2018-09-23T21:03:18.299Z,2.13
2018-09-23T21:08:21.333Z,2.70
2018-09-23T21:13:24.361Z,2.40
2018-09-23T21:18:27.484Z,2.60
2018-09-23T21:23:30.547Z,2.60
2018-09-23T21:28:33.573Z,2.90
2018-09-23T21:33:36.620Z,2.70
2018-09-23T21:38:39.667Z,3.30
2018-09-23T21:43:42.690Z,2.57
2018-09-23T21:48:45.737Z,2.03
2018-09-23T21:53:48.769Z,2.27
2018-09-23T21:58:51.806Z,1.40
2018-09-23T22:03:55.211Z,1.63
2018-09-23T22:08:58.258Z,2.00
2018-09-23T22:14:01.301Z,1.57
2018-09-23T22:19:04.358Z,1.60
2018-09-23T22:24:07.380Z,1.30
2018-09-23T22:29:10.529Z,1.40
2018-09-23T22:34:13.566Z,1.30
2018-09-23T22:39:16.593Z,1.50
2018-09-23T22:44:19.666Z,0.97
2018-09-23T22:49:22.706Z,1.77
2018-09-23T22:54:25.765Z,0.60
2018-09-23T22:59:28.817Z,1.13
2018-09-23T23:04:31.857Z,1.63
2018-09-23T23:09:35.110Z,1.17
2018-09-23T23:14:38.119Z,1.43
2018-09-23T23:19:41.159Z,1.10
2018-09-23T23:24:44.173Z,1.27
2018-09-23T23:29:47.193Z,1.20
2018-09-23T23:34:50.212Z,1.30
2018-09-23T23:39:53.262Z,1.57
2018-09-23T23:44:56.329Z,1.10
2018-09-23T23:49:59.362Z,1.40
2018-09-23T23:55:02.502Z,0.90
